Killeen, TX (76543)

11:14 AM CDT on October 30, 2014 (GMT -0500)
W. Birch St. | Change Station
CLOSE
Current Station
Personal Weather Station
Location: Nolanville, TX
Elevation: 715 ft
Nearby Weather Stations

Elev 715 ft 31.08 °N, 97.59 °W | Updated 7 seconds ago

Mostly Cloudy
Mostly Cloudy
70.2 °F
Feels Like 77 °F
N
5.1
Wind Variable Wind from SSE
Gusts 5.6 mph

Today
High -- | Low -- °F
--% Chance of Precip.
Yesterday
High -- | Low -- °F
Precip. -- in
7:44 AM 6:43 PM
Waxing Crescent, 45% visible
Pressure 30.15 in
Visibility 10.0 miles
Clouds Scattered Clouds 3800 ft
Mostly Cloudy 5000 ft
Heat Index 77 °F
Dew Point 53 °F
Humidity 55%
Rainfall 0.00 in
Snow Depth Not available.
UV 2 out of 12
Pollen 4.30 out of 12
Air Quality Not available.
Flu Activity Not available.
METAR KILE 301555Z AUTO 15005KT 10SM SCT038 BKN050 19/09 A3015 RMK AO1

More Conditions Fewer Conditions

Pressure 30.15 in
Visibility 10.0 miles
Clouds Scattered Clouds 3800 ft
Mostly Cloudy 5000 ft
Heat Index 77 °F
Dew Point 53 °F
Humidity 55%
Rainfall 0.00 in
Snow Depth Not available.
UV 2 out of 12
Pollen 4.30 out of 12
Air Quality Not available.
Flu Activity Not available.
METAR KILE 301555Z AUTO 15005KT 10SM SCT038 BKN050 19/09 A3015 RMK AO1

More Conditions Fewer Conditions

Nowcast | as of 10:27 am CDT on October 30, 2014

At 1025 am...area radars indicated that a few isolated showers were beginning to develop along a Mineral Wells to Meridian to Waco line. This activity was moving towards the southeast at around 5 to 10 mph. Very little rain was likely reaching the ground at this time...however. Otherwise...skies ranged from mostly sunny to mostly cloudy across north and central Texas with temperatures in the 60s. Through the rest of this morning...isolated showers may continue to develop generally west of the Interstate 35 corridor. This activity will continue to move towards the south and east. Rainfall amounts should remain light...with total amounts of around a few hundredths of an inch. Otherwise...expect partly to mostly sunny skies. Temperatures should climb through the low to mid 70s with southerly winds of 5 to 15 mph.

×

10-Day Weather Forecast

Almanac

Astronomy

Oct. 30, 2014 Rise Set
Actual Time
Civil Twilight
Nautical Twilight
Astronomical Twilight
Moon
Length of Visible Light
Length of Day
Tomorrow will be .
, % of the Moon is Illuminated

Today's Extremes

State Highs State Lows

Community

WunderPhotos

Upload Photos

1,766,398 photos uploaded!

WunderBlogs® & News

Nearby

Air Quality

  Air Quality AQ Index Pollutant
Not available.

Snow Depth

Station Depth Elevation

Earthquake Activity

City Distance Mag. Time & Date
Minimum magnitude displayed is 2.5.

Coastal Water Temperatures

Place Temperature

Nearby Weather Stations